createdAt,value
2022-10-12T00:01:41.524Z,20.11
2022-10-12T00:04:44.339Z,20.10
2022-10-12T00:07:47.108Z,20.11
2022-10-12T00:10:50.245Z,20.10
2022-10-12T00:13:53.875Z,20.11
2022-10-12T00:16:58.182Z,20.12
2022-10-12T00:20:01.001Z,20.12
2022-10-12T00:23:04.030Z,20.11
2022-10-12T00:26:08.716Z,20.11
2022-10-12T00:29:11.501Z,20.11
2022-10-12T00:32:16.374Z,20.11
2022-10-12T00:35:19.196Z,20.10
2022-10-12T00:38:22.281Z,20.10
2022-10-12T00:41:27.095Z,20.10
2022-10-12T00:44:39.328Z,20.10
2022-10-12T00:47:49.717Z,20.09
2022-10-12T00:50:52.839Z,20.09
2022-10-12T00:54:01.091Z,20.09
2022-10-12T00:57:06.449Z,20.10
2022-10-12T01:00:11.891Z,20.10
2022-10-12T01:03:19.310Z,20.11
2022-10-12T01:06:22.363Z,20.10
2022-10-12T01:09:25.217Z,20.10
2022-10-12T01:12:28.744Z,20.10
2022-10-12T01:15:36.423Z,20.09
2022-10-12T01:18:48.950Z,20.08
2022-10-12T01:21:59.129Z,20.09
2022-10-12T01:25:15.160Z,20.09
2022-10-12T01:28:25.381Z,20.07
2022-10-12T01:31:36.676Z,20.08
2022-10-12T01:34:47.079Z,20.07
2022-10-12T01:37:59.277Z,20.07
2022-10-12T01:41:08.016Z,20.09
2022-10-12T01:44:10.817Z,20.08
2022-10-12T01:47:15.065Z,20.09
2022-10-12T01:50:18.783Z,20.08
2022-10-12T01:53:34.417Z,20.09
2022-10-12T01:56:48.148Z,20.08
2022-10-12T01:59:59.407Z,20.08
2022-10-12T02:03:14.217Z,20.08
2022-10-12T02:06:20.378Z,20.07
2022-10-12T02:09:27.694Z,20.06
2022-10-12T02:12:33.244Z,20.07
2022-10-12T02:15:38.575Z,20.05
2022-10-12T02:18:46.303Z,20.05
2022-10-12T02:21:51.316Z,20.06
2022-10-12T02:24:57.997Z,20.06
2022-10-12T02:28:06.898Z,20.06
2022-10-12T02:31:16.105Z,20.06
2022-10-12T02:34:26.156Z,20.07
2022-10-12T02:37:36.100Z,20.07
2022-10-12T02:40:43.369Z,20.07
2022-10-12T02:43:51.818Z,20.06
2022-10-12T02:46:56.084Z,20.06
2022-10-12T02:50:01.799Z,20.05
2022-10-12T02:53:05.565Z,20.05
2022-10-12T02:56:11.917Z,20.04
2022-10-12T02:59:15.424Z,20.04
2022-10-12T03:02:18.212Z,20.04
2022-10-12T03:05:23.421Z,20.04
2022-10-12T03:08:26.248Z,20.04
2022-10-12T03:11:29.202Z,20.05
2022-10-12T03:14:33.942Z,20.05
2022-10-12T03:17:36.997Z,20.05
2022-10-12T03:20:41.375Z,20.06
2022-10-12T03:23:44.161Z,20.04
2022-10-12T03:26:46.981Z,20.05
2022-10-12T03:29:49.759Z,20.04
2022-10-12T03:32:52.606Z,20.03
2022-10-12T03:35:56.752Z,20.03
2022-10-12T03:38:59.684Z,20.03
2022-10-12T03:42:02.884Z,20.03
2022-10-12T03:45:06.330Z,20.03
2022-10-12T03:48:09.106Z,20.02
2022-10-12T03:51:13.346Z,20.03
2022-10-12T03:54:16.342Z,20.02
2022-10-12T03:57:19.114Z,20.03
2022-10-12T04:00:22.192Z,20.03
2022-10-12T04:03:25.032Z,20.03
2022-10-12T04:06:29.280Z,20.03
2022-10-12T04:09:32.084Z,20.03
2022-10-12T04:12:34.902Z,20.04
2022-10-12T04:15:37.982Z,20.03
2022-10-12T04:18:40.827Z,20.02
2022-10-12T04:21:44.969Z,20.02
2022-10-12T04:24:47.821Z,20.02
2022-10-12T04:27:51.139Z,20.01
2022-10-12T04:30:53.922Z,20.01
2022-10-12T04:33:57.155Z,20.00
2022-10-12T04:37:01.325Z,20.02
2022-10-12T04:40:04.810Z,20.02
2022-10-12T04:43:07.581Z,20.02
2022-10-12T04:46:10.367Z,20.02
2022-10-12T04:49:13.360Z,20.03
2022-10-12T04:52:17.528Z,20.03
2022-10-12T04:55:20.293Z,20.01
2022-10-12T04:58:23.096Z,20.01
2022-10-12T05:01:26.008Z,20.02
2022-10-12T05:04:28.849Z,20.02
2022-10-12T05:07:33.040Z,20.00
2022-10-12T05:10:35.913Z,20.00
2022-10-12T05:13:38.698Z,20.01
2022-10-12T05:16:41.564Z,20.00
2022-10-12T05:19:44.356Z,20.01
2022-10-12T05:22:48.648Z,20.01
2022-10-12T05:25:51.560Z,20.02
2022-10-12T05:28:54.842Z,20.03
2022-10-12T05:31:57.800Z,20.02
2022-10-12T05:35:00.618Z,20.03
2022-10-12T05:38:05.058Z,20.02
2022-10-12T05:41:08.075Z,20.01
2022-10-12T05:44:10.918Z,20.02
2022-10-12T05:47:13.711Z,20.02
2022-10-12T05:50:16.619Z,20.01
2022-10-12T05:53:20.818Z,20.01
2022-10-12T05:56:23.561Z,20.01
2022-10-12T05:59:26.454Z,20.01
2022-10-12T06:02:29.257Z,20.01
2022-10-12T06:05:32.082Z,20.02
2022-10-12T06:08:36.675Z,20.02
2022-10-12T06:11:40.021Z,20.03
2022-10-12T06:14:42.773Z,20.03
2022-10-12T06:17:45.569Z,20.03
2022-10-12T06:20:49.405Z,20.03
2022-10-12T06:23:53.552Z,20.04
2022-10-12T06:26:56.345Z,20.03
2022-10-12T06:29:59.191Z,20.03
2022-10-12T06:33:02.018Z,20.02
2022-10-12T06:36:05.047Z,20.03
2022-10-12T06:39:09.997Z,20.03
2022-10-12T06:42:12.769Z,20.03
2022-10-12T06:45:25.257Z,20.02
2022-10-12T06:48:28.038Z,20.01
2022-10-12T06:51:30.945Z,20.02
2022-10-12T06:54:35.106Z,20.03
2022-10-12T06:57:38.205Z,20.04
2022-10-12T07:00:40.970Z,20.04
2022-10-12T07:03:43.760Z,20.04
2022-10-12T07:06:46.548Z,20.04
2022-10-12T07:09:50.864Z,20.04
2022-10-12T07:12:53.684Z,20.03
2022-10-12T07:15:56.474Z,20.03
2022-10-12T07:18:59.245Z,20.02
2022-10-12T07:22:02.419Z,20.03
2022-10-12T07:25:07.794Z,20.03
2022-10-12T07:28:10.848Z,20.02
2022-10-12T07:31:13.796Z,20.02
2022-10-12T07:34:16.656Z,20.02
2022-10-12T07:37:19.582Z,20.03
2022-10-12T07:40:23.777Z,20.03
2022-10-12T07:43:26.615Z,20.04
2022-10-12T07:46:29.378Z,20.04
2022-10-12T07:49:32.199Z,20.04
2022-10-12T07:52:35.041Z,20.04
2022-10-12T07:55:39.211Z,20.04
2022-10-12T07:58:42.134Z,20.04
2022-10-12T08:01:45.003Z,20.03
2022-10-12T08:04:47.829Z,20.04
2022-10-12T08:07:51.203Z,20.03
2022-10-12T08:10:57.501Z,20.04
2022-10-12T08:14:00.301Z,20.03
2022-10-12T08:17:03.117Z,20.03
2022-10-12T08:20:07.514Z,20.05
2022-10-12T08:23:10.313Z,20.05
2022-10-12T08:26:15.667Z,20.05
2022-10-12T08:29:18.641Z,20.05
2022-10-12T08:32:21.486Z,20.06
2022-10-12T08:35:24.287Z,20.06
2022-10-12T08:38:27.077Z,20.05
2022-10-12T08:41:44.317Z,20.06
2022-10-12T08:44:58.039Z,20.06
2022-10-12T08:48:08.521Z,20.05
2022-10-12T08:51:16.820Z,20.06
2022-10-12T08:54:23.111Z,20.05
2022-10-12T08:57:27.442Z,20.06
2022-10-12T09:00:34.812Z,20.06
2022-10-12T09:03:45.565Z,20.07
2022-10-12T09:06:51.909Z,20.07
2022-10-12T09:10:09.807Z,20.09
2022-10-12T09:13:29.517Z,20.08
2022-10-12T09:16:35.840Z,20.09
2022-10-12T09:19:42.101Z,20.09
2022-10-12T09:22:50.334Z,20.09
2022-10-12T09:25:55.947Z,20.09
2022-10-12T09:29:00.561Z,20.09
2022-10-12T09:32:29.383Z,20.09
2022-10-12T09:35:32.312Z,20.09
2022-10-12T09:38:35.568Z,20.09
2022-10-12T09:41:42.492Z,20.09
2022-10-12T09:44:49.477Z,20.10
2022-10-12T09:48:18.324Z,20.11
2022-10-12T09:51:21.233Z,20.10
2022-10-12T09:54:28.506Z,20.12
2022-10-12T09:57:33.804Z,20.12
2022-10-12T10:00:37.993Z,20.12
2022-10-12T10:03:40.893Z,20.13
2022-10-12T10:06:45.914Z,20.12
2022-10-12T10:09:49.343Z,20.12
2022-10-12T10:12:54.171Z,20.12
2022-10-12T10:16:06.835Z,20.12
2022-10-12T10:19:18.855Z,20.12
2022-10-12T10:22:22.936Z,20.11
2022-10-12T10:25:26.365Z,20.12
2022-10-12T10:28:31.755Z,20.13
2022-10-12T10:31:36.053Z,20.13
2022-10-12T10:34:39.146Z,20.13
2022-10-12T10:37:46.279Z,20.14
2022-10-12T10:40:52.535Z,20.15
2022-10-12T10:43:55.995Z,20.14
2022-10-12T10:47:03.321Z,20.14
2022-10-12T10:50:26.929Z,20.15
2022-10-12T10:53:32.913Z,20.14
2022-10-12T10:56:35.801Z,20.14
2022-10-12T10:59:45.837Z,20.14
2022-10-12T11:02:53.274Z,20.13
2022-10-12T11:06:04.646Z,20.12
2022-10-12T11:09:17.194Z,20.12
2022-10-12T11:12:30.256Z,20.13
2022-10-12T11:15:39.692Z,20.13
2022-10-12T11:18:47.313Z,20.14
2022-10-12T11:21:54.479Z,20.14
2022-10-12T11:25:07.059Z,20.13
2022-10-12T11:28:16.391Z,20.13
2022-10-12T11:31:25.638Z,20.13
2022-10-12T11:34:37.203Z,20.14
2022-10-12T11:37:43.823Z,20.14
2022-10-12T11:41:31.097Z,20.13
2022-10-12T11:44:18.971Z,20.12
2022-10-12T11:47:32.832Z,20.13
2022-10-12T11:50:39.777Z,20.13
2022-10-12T11:53:50.393Z,20.12
2022-10-12T11:56:58.012Z,20.13
2022-10-12T12:00:05.728Z,20.13
2022-10-12T12:03:23.173Z,20.14
2022-10-12T12:06:51.258Z,20.13
2022-10-12T12:09:54.614Z,20.13
2022-10-12T12:13:18.093Z,20.15
2022-10-12T12:16:27.825Z,20.13
2022-10-12T12:19:40.615Z,20.14
2022-10-12T12:22:52.189Z,20.13
2022-10-12T12:26:11.814Z,20.12
2022-10-12T12:29:29.784Z,20.13
2022-10-12T12:32:45.799Z,20.13
2022-10-12T12:35:55.501Z,20.13
2022-10-12T12:39:00.136Z,20.13
2022-10-12T12:42:05.141Z,20.11
2022-10-12T12:45:41.265Z,20.13
2022-10-12T12:49:07.338Z,20.13
2022-10-12T12:52:17.748Z,20.13
2022-10-12T12:55:52.722Z,20.14
2022-10-12T12:59:19.135Z,20.14
2022-10-12T13:02:48.063Z,20.14
2022-10-12T13:06:34.895Z,20.14
2022-10-12T13:09:59.485Z,20.14
2022-10-12T13:13:27.641Z,20.13
2022-10-12T13:20:19.437Z,20.13
2022-10-12T13:23:25.420Z,20.13
2022-10-12T13:26:32.142Z,20.12
2022-10-12T13:29:42.385Z,20.13
2022-10-12T13:32:50.961Z,20.13
2022-10-12T13:35:57.482Z,20.14
2022-10-12T13:39:07.920Z,20.13
2022-10-12T13:42:16.052Z,20.15
2022-10-12T13:45:21.270Z,20.14
2022-10-12T13:48:46.320Z,20.14
2022-10-12T13:51:50.457Z,20.13
2022-10-12T13:54:53.420Z,20.15
2022-10-12T13:57:56.291Z,20.13
2022-10-12T14:01:00.819Z,20.14
2022-10-12T14:04:05.638Z,20.13
2022-10-12T14:07:16.295Z,20.13
2022-10-12T14:10:22.785Z,20.13
2022-10-12T14:13:28.745Z,20.12
2022-10-12T14:16:33.010Z,20.13
2022-10-12T14:19:45.760Z,20.14
2022-10-12T14:22:49.897Z,20.15
2022-10-12T14:25:54.298Z,20.14
2022-10-12T14:28:58.218Z,20.15
2022-10-12T14:32:03.813Z,20.16
2022-10-12T14:35:20.903Z,20.14
2022-10-12T14:38:38.819Z,20.15
2022-10-12T14:41:50.105Z,20.15
2022-10-12T14:44:53.258Z,20.13
2022-10-12T14:47:59.534Z,20.13
2022-10-12T14:51:02.415Z,20.13
2022-10-12T14:54:06.167Z,20.13
2022-10-12T14:57:13.970Z,20.12
2022-10-12T15:00:18.885Z,20.13
2022-10-12T15:03:23.165Z,20.14
2022-10-12T15:06:25.995Z,20.14
2022-10-12T15:09:28.936Z,20.14
2022-10-12T15:12:32.001Z,20.15
2022-10-12T15:15:42.284Z,20.16
2022-10-12T15:18:46.681Z,20.14
2022-10-12T15:21:49.556Z,20.15
2022-10-12T15:24:53.660Z,20.14
2022-10-12T15:27:56.479Z,20.14
2022-10-12T15:31:16.977Z,20.13
2022-10-12T15:34:21.995Z,20.13
2022-10-12T15:37:30.173Z,20.13
2022-10-12T15:40:34.423Z,20.14
2022-10-12T15:43:39.699Z,20.13
2022-10-12T15:46:45.497Z,20.13
2022-10-12T15:49:49.645Z,20.13
2022-10-12T15:52:54.206Z,20.14
2022-10-12T15:55:57.272Z,20.15
2022-10-12T15:59:00.170Z,20.15
2022-10-12T16:02:03.013Z,20.14
2022-10-12T16:05:15.973Z,20.14
2022-10-12T16:08:18.751Z,20.14
2022-10-12T16:11:21.963Z,20.14
2022-10-12T16:14:24.768Z,20.14
2022-10-12T16:17:27.524Z,20.13
2022-10-12T16:20:34.289Z,20.14
2022-10-12T16:23:38.391Z,20.13
2022-10-12T16:26:44.856Z,20.12
2022-10-12T16:29:47.996Z,20.12
2022-10-12T16:32:50.919Z,20.13
2022-10-12T16:35:55.398Z,20.13
2022-10-12T16:38:58.277Z,20.13
2022-10-12T16:42:01.107Z,20.14
2022-10-12T16:45:04.805Z,20.14
2022-10-12T16:48:07.788Z,20.14
2022-10-12T16:51:13.859Z,20.14
2022-10-12T16:54:16.838Z,20.12
2022-10-12T16:57:19.674Z,20.13
2022-10-12T17:00:22.623Z,20.12
2022-10-12T17:03:25.484Z,20.12
2022-10-12T17:06:29.925Z,20.12
2022-10-12T17:09:32.981Z,20.11
2022-10-12T17:12:36.076Z,20.12
2022-10-12T17:15:41.520Z,20.12
2022-10-12T17:18:44.363Z,20.12
2022-10-12T17:21:49.276Z,20.13
2022-10-12T17:24:52.043Z,20.13
2022-10-12T17:27:54.838Z,20.13
2022-10-12T17:30:57.564Z,20.13
2022-10-12T17:34:02.736Z,20.13
2022-10-12T17:37:08.418Z,20.12
2022-10-12T17:40:11.729Z,20.12
2022-10-12T17:43:14.576Z,20.10
2022-10-12T17:46:22.578Z,20.12
2022-10-12T17:49:25.813Z,20.11
2022-10-12T17:52:29.937Z,20.11
2022-10-12T17:55:48.113Z,20.11
2022-10-12T17:58:55.362Z,20.11
2022-10-12T18:01:58.196Z,20.11
2022-10-12T18:05:00.997Z,20.12
2022-10-12T18:08:05.686Z,20.12
2022-10-12T18:11:08.943Z,20.12
2022-10-12T18:14:13.099Z,20.13
2022-10-12T18:17:15.891Z,20.11
2022-10-12T18:20:19.433Z,20.10
2022-10-12T18:23:23.580Z,20.11
2022-10-12T18:26:27.850Z,20.11
2022-10-12T18:29:30.645Z,20.10
2022-10-12T18:32:33.482Z,20.10
2022-10-12T18:35:36.253Z,20.10
2022-10-12T18:38:40.690Z,20.10
2022-10-12T18:41:43.591Z,20.10
2022-10-12T18:44:46.511Z,20.09
2022-10-12T18:47:49.419Z,20.10
2022-10-12T18:50:53.337Z,20.10
2022-10-12T18:53:58.696Z,20.11
2022-10-12T18:57:02.486Z,20.10
2022-10-12T19:00:06.213Z,20.11
2022-10-12T19:03:12.486Z,20.11
2022-10-12T19:06:17.551Z,20.10
2022-10-12T19:09:21.875Z,20.11
2022-10-12T19:12:24.688Z,20.10
2022-10-12T19:15:28.533Z,20.09
2022-10-12T19:18:31.383Z,20.09
2022-10-12T19:21:34.828Z,20.08
2022-10-12T19:24:39.014Z,20.08
2022-10-12T19:27:41.992Z,20.09
2022-10-12T19:30:44.859Z,20.08
2022-10-12T19:33:48.464Z,20.10
2022-10-12T19:36:51.706Z,20.09
2022-10-12T19:39:55.919Z,20.11
2022-10-12T19:42:58.749Z,20.10
2022-10-12T19:46:03.702Z,20.09
2022-10-12T19:49:06.636Z,20.09
2022-10-12T19:52:09.452Z,20.09
2022-10-12T19:55:13.600Z,20.09
2022-10-12T19:58:16.436Z,20.09
2022-10-12T20:01:20.997Z,20.09
2022-10-12T20:04:24.166Z,20.07
2022-10-12T20:07:26.983Z,20.07
2022-10-12T20:10:31.191Z,20.07
2022-10-12T20:13:34.681Z,20.08
2022-10-12T20:16:37.826Z,20.08
2022-10-12T20:19:40.663Z,20.08
2022-10-12T20:22:43.421Z,20.08
2022-10-12T20:25:50.023Z,20.09
2022-10-12T20:28:54.720Z,20.08
2022-10-12T20:31:57.532Z,20.07
2022-10-12T20:35:01.637Z,20.07
2022-10-12T20:38:05.235Z,20.08
2022-10-12T20:41:11.289Z,20.07
2022-10-12T20:44:14.162Z,20.07
2022-10-12T20:47:17.648Z,20.06
2022-10-12T20:50:20.778Z,20.07
2022-10-12T20:53:23.627Z,20.06
2022-10-12T20:56:28.141Z,20.06
2022-10-12T20:59:31.508Z,20.06
2022-10-12T21:02:34.461Z,20.06
2022-10-12T21:05:37.265Z,20.06
2022-10-12T21:08:40.928Z,20.08
2022-10-12T21:11:45.137Z,20.07
2022-10-12T21:14:47.908Z,20.07
2022-10-12T21:17:51.087Z,20.07
2022-10-12T21:20:55.732Z,20.06
2022-10-12T21:24:01.155Z,20.06
2022-10-12T21:27:05.748Z,20.05
2022-10-12T21:30:09.551Z,20.06
2022-10-12T21:33:13.189Z,20.05
2022-10-12T21:36:18.393Z,20.04
2022-10-12T21:39:21.175Z,20.05
2022-10-12T21:42:25.358Z,20.05
2022-10-12T21:45:28.309Z,20.05
2022-10-12T21:48:31.195Z,20.06
2022-10-12T21:51:33.975Z,20.06
2022-10-12T21:54:36.778Z,20.06
2022-10-12T21:57:40.916Z,20.06
2022-10-12T22:00:43.729Z,20.06
2022-10-12T22:03:48.053Z,20.05
2022-10-12T22:06:50.886Z,20.05
2022-10-12T22:09:53.652Z,20.05
2022-10-12T22:12:57.829Z,20.05
2022-10-12T22:16:01.620Z,20.04
2022-10-12T22:19:07.572Z,20.03
2022-10-12T22:22:10.390Z,20.03
2022-10-12T22:25:13.196Z,20.02
2022-10-12T22:28:17.481Z,20.03
2022-10-12T22:31:21.743Z,20.04
2022-10-12T22:34:24.552Z,20.03
2022-10-12T22:37:27.349Z,20.03
2022-10-12T22:40:30.171Z,20.04
2022-10-12T22:43:35.830Z,20.03
2022-10-12T22:46:38.602Z,20.02
2022-10-12T22:49:41.396Z,20.02
2022-10-12T22:52:44.161Z,20.02
2022-10-12T22:55:48.210Z,20.02
2022-10-12T22:58:56.458Z,20.01
2022-10-12T23:01:59.283Z,20.00
2022-10-12T23:05:03.389Z,20.00
2022-10-12T23:08:06.330Z,19.99
2022-10-12T23:11:11.868Z,20.00
2022-10-12T23:14:16.027Z,20.00
2022-10-12T23:17:18.842Z,20.00
2022-10-12T23:20:21.662Z,20.01
2022-10-12T23:23:25.888Z,20.01
2022-10-12T23:26:30.358Z,20.01
2022-10-12T23:29:34.566Z,20.00
2022-10-12T23:32:37.755Z,20.00
2022-10-12T23:35:40.536Z,20.00
2022-10-12T23:38:45.147Z,19.99
2022-10-12T23:41:47.931Z,19.99
2022-10-12T23:44:52.073Z,19.98
2022-10-12T23:47:54.850Z,19.98
2022-10-12T23:50:57.811Z,19.98
2022-10-12T23:54:00.921Z,19.98
2022-10-12T23:57:03.718Z,19.99
